GTI56 SPJC-KMIA
Flight info
| Callsign | GTI56 |
|---|---|
| Flight time | N/A |
| Altitude | 33000 |
| Route | ILROL UM795 LOBOT/N0506F340 UM795 BOKAN/N0504F350 UM795 COLBY/N0499F360 DCT NIBEO/N0496F370 DCT ALTIB/N0497F360 UM779 ZEUSS |
| Aircraft | B742/H-SDFHIRUWXY/L |
Departure
| Time | 2026-05-04 13:11 |
|---|---|
| Airport | Jorge Chávez International Airport (SPJC) |
Arrival
| Time | N/A |
|---|---|
| Airport | Miami International Airport (KMIA) |
| Time | Latitude | Longitude | Altitude | Speed | Heading |
|---|---|---|---|---|---|
| 2026-05-04 10:34 | -12.02928 | -77.10735 | 126 ft | 0 kts | 63° |
| 2026-05-04 12:56 | -12.02928 | -77.10736 | 124 ft | 0 kts | 63° |
| 2026-05-04 12:56 | -12.02935 | -77.10748 | 124 ft | 2 kts | 62° |
| 2026-05-04 12:57 | -12.02942 | -77.10762 | 123 ft | 2 kts | 63° |
| 2026-05-04 12:57 | -12.02949 | -77.10776 | 123 ft | 2 kts | 63° |
| 2026-05-04 12:57 | -12.02953 | -77.10784 | 123 ft | 1 kts | 63° |
| 2026-05-04 12:57 | -12.02961 | -77.10797 | 123 ft | 2 kts | 45° |
| 2026-05-04 12:58 | -12.02973 | -77.10806 | 123 ft | 2 kts | 29° |
| 2026-05-04 12:58 | -12.02987 | -77.10812 | 123 ft | 2 kts | 14° |
| 2026-05-04 12:58 | -12.03001 | -77.10814 | 123 ft | 2 kts | 358° |
| 2026-05-04 12:58 | -12.03016 | -77.10812 | 123 ft | 2 kts | 342° |
| 2026-05-04 12:59 | -12.03024 | -77.10809 | 123 ft | 1 kts | 334° |
| 2026-05-04 12:59 | -12.03025 | -77.10809 | 123 ft | 0 kts | 334° |
| 2026-05-04 13:03 | -12.03024 | -77.10809 | 123 ft | 0 kts | 334° |
| 2026-05-04 13:03 | -12.03005 | -77.10818 | 123 ft | 5 kts | 334° |
| 2026-05-04 13:03 | -12.02955 | -77.10843 | 123 ft | 10 kts | 334° |
| 2026-05-04 13:03 | -12.02874 | -77.10883 | 123 ft | 15 kts | 334° |
| 2026-05-04 13:04 | -12.02764 | -77.10938 | 123 ft | 19 kts | 334° |
| 2026-05-04 13:04 | -12.02633 | -77.11002 | 123 ft | 22 kts | 332° |
| 2026-05-04 13:04 | -12.02486 | -77.11071 | 123 ft | 24 kts | 332° |
| 2026-05-04 13:04 | -12.02329 | -77.11150 | 123 ft | 25 kts | 335° |
| 2026-05-04 13:05 | -12.02175 | -77.11227 | 124 ft | 23 kts | 334° |
| 2026-05-04 13:05 | -12.02030 | -77.11298 | 124 ft | 22 kts | 334° |
| 2026-05-04 13:05 | -12.01900 | -77.11364 | 124 ft | 19 kts | 334° |
| 2026-05-04 13:05 | -12.01785 | -77.11420 | 124 ft | 17 kts | 334° |
| 2026-05-04 13:06 | -12.01678 | -77.11472 | 124 ft | 16 kts | 334° |
| 2026-05-04 13:06 | -12.01575 | -77.11523 | 124 ft | 16 kts | 334° |
| 2026-05-04 13:06 | -12.01467 | -77.11576 | 124 ft | 17 kts | 334° |
| 2026-05-04 13:06 | -12.01355 | -77.11631 | 124 ft | 18 kts | 334° |
| 2026-05-04 13:07 | -12.01240 | -77.11688 | 124 ft | 18 kts | 334° |
| 2026-05-04 13:07 | -12.01118 | -77.11748 | 124 ft | 19 kts | 334° |
| 2026-05-04 13:07 | -12.00997 | -77.11808 | 124 ft | 19 kts | 333° |
| 2026-05-04 13:07 | -12.00880 | -77.11866 | 124 ft | 17 kts | 334° |
| 2026-05-04 13:08 | -12.00776 | -77.11917 | 124 ft | 14 kts | 334° |
| 2026-05-04 13:08 | -12.00698 | -77.11962 | 124 ft | 11 kts | 314° |
| 2026-05-04 13:08 | -12.00681 | -77.12026 | 124 ft | 8 kts | 258° |
| 2026-05-04 13:08 | -12.00699 | -77.12074 | 124 ft | 6 kts | 245° |
| 2026-05-04 13:09 | -12.00718 | -77.12110 | 124 ft | 5 kts | 237° |
| 2026-05-04 13:09 | -12.00744 | -77.12133 | 124 ft | 4 kts | 199° |
| 2026-05-04 13:09 | -12.00782 | -77.12128 | 124 ft | 6 kts | 152° |
| 2026-05-04 13:09 | -12.00794 | -77.12121 | 124 ft | 0 kts | 153° |
| 2026-05-04 13:10 | -12.00858 | -77.12089 | 124 ft | 37 kts | 153° |
| 2026-05-04 13:11 | -12.01299 | -77.11872 | 124 ft | 101 kts | 154° |
| 2026-05-04 13:11 | -12.02119 | -77.11464 | 124 ft | 157 kts | 154° |
| 2026-05-04 13:11 | -12.03219 | -77.10915 | 285 ft | 186 kts | 153° |
| 2026-05-04 13:11 | -12.04391 | -77.10327 | 810 ft | 188 kts | 154° |
| 2026-05-04 13:12 | -12.05564 | -77.09746 | 1399 ft | 190 kts | 154° |
| 2026-05-04 13:12 | -12.06785 | -77.09120 | 1850 ft | 201 kts | 154° |
| 2026-05-04 13:12 | -12.08122 | -77.08473 | 2122 ft | 222 kts | 154° |
| 2026-05-04 13:12 | -12.09610 | -77.07823 | 2381 ft | 242 kts | 162° |
| 2026-05-04 13:13 | -12.11338 | -77.07736 | 2630 ft | 261 kts | 193° |
| 2026-05-04 13:13 | -12.12955 | -77.08659 | 2915 ft | 275 kts | 227° |
| 2026-05-04 13:13 | -12.13882 | -77.10365 | 3458 ft | 281 kts | 259° |
| 2026-05-04 13:13 | -12.13910 | -77.12369 | 4059 ft | 286 kts | 278° |
| 2026-05-04 13:14 | -12.13798 | -77.14407 | 4774 ft | 291 kts | 271° |
| 2026-05-04 13:14 | -12.13907 | -77.16495 | 5241 ft | 306 kts | 266° |
| 2026-05-04 13:14 | -12.14141 | -77.18649 | 5603 ft | 296 kts | 264° |
| 2026-05-04 13:14 | -12.14400 | -77.20647 | 5882 ft | 276 kts | 264° |
| 2026-05-04 13:15 | -12.14655 | -77.22578 | 6250 ft | 272 kts | 264° |
| 2026-05-04 13:15 | -12.14777 | -77.24480 | 6632 ft | 267 kts | 281° |
| 2026-05-04 13:15 | -12.14122 | -77.26228 | 7017 ft | 265 kts | 307° |
| 2026-05-04 13:15 | -12.12866 | -77.27609 | 7399 ft | 267 kts | 322° |
| 2026-05-04 13:16 | -12.11347 | -77.28719 | 7881 ft | 271 kts | 328° |
| 2026-05-04 13:16 | -12.09724 | -77.29709 | 8483 ft | 273 kts | 330° |
| 2026-05-04 13:16 | -12.08035 | -77.30672 | 8983 ft | 280 kts | 332° |
| 2026-05-04 13:16 | -12.06311 | -77.31634 | 9340 ft | 289 kts | 332° |
| 2026-05-04 13:17 | -12.04530 | -77.32623 | 9696 ft | 288 kts | 332° |
| 2026-05-04 13:17 | -12.02780 | -77.33596 | 9902 ft | 286 kts | 332° |
| 2026-05-04 13:17 | -12.01020 | -77.34575 | 9961 ft | 289 kts | 332° |
| 2026-05-04 13:17 | -11.99196 | -77.35590 | 10062 ft | 302 kts | 332° |
| 2026-05-04 13:18 | -11.97332 | -77.36629 | 10136 ft | 309 kts | 332° |
| 2026-05-04 13:18 | -11.95367 | -77.37725 | 10229 ft | 330 kts | 332° |
| 2026-05-04 13:18 | -11.93286 | -77.38886 | 10397 ft | 346 kts | 332° |
| 2026-05-04 13:18 | -11.91147 | -77.40079 | 10669 ft | 359 kts | 332° |
| 2026-05-04 13:19 | -11.88908 | -77.41328 | 10950 ft | 370 kts | 332° |
| 2026-05-04 13:19 | -11.86604 | -77.42612 | 11360 ft | 380 kts | 332° |
| 2026-05-04 13:19 | -11.84245 | -77.43927 | 11744 ft | 388 kts | 332° |
| 2026-05-04 13:19 | -11.81835 | -77.45232 | 12219 ft | 395 kts | 336° |
| 2026-05-04 13:20 | -11.79231 | -77.46079 | 12874 ft | 396 kts | 348° |
| 2026-05-04 13:20 | -11.76479 | -77.46394 | 13472 ft | 398 kts | 2° |
| 2026-05-04 13:20 | -11.73732 | -77.45990 | 14017 ft | 399 kts | 17° |
| 2026-05-04 13:20 | -11.71164 | -77.44894 | 14637 ft | 400 kts | 30° |
| 2026-05-04 13:21 | -11.68810 | -77.43359 | 15200 ft | 402 kts | 36° |
| 2026-05-04 13:21 | -11.66544 | -77.41689 | 15797 ft | 404 kts | 37° |
| 2026-05-04 13:21 | -11.64260 | -77.39967 | 16295 ft | 407 kts | 37° |
| 2026-05-04 13:21 | -11.61969 | -77.38254 | 16813 ft | 410 kts | 37° |
| 2026-05-04 13:22 | -11.59675 | -77.36564 | 17391 ft | 412 kts | 37° |
| 2026-05-04 13:22 | -11.57312 | -77.34848 | 17812 ft | 416 kts | 36° |
| 2026-05-04 13:22 | -11.54935 | -77.33147 | 18256 ft | 419 kts | 36° |
| 2026-05-04 13:22 | -11.52525 | -77.31440 | 18723 ft | 422 kts | 36° |
| 2026-05-04 13:23 | -11.50092 | -77.29726 | 19196 ft | 424 kts | 35° |
| 2026-05-04 13:23 | -11.47663 | -77.28020 | 19638 ft | 427 kts | 35° |
| 2026-05-04 13:23 | -11.45189 | -77.26305 | 20028 ft | 431 kts | 35° |
| 2026-05-04 13:23 | -11.42714 | -77.24590 | 20493 ft | 433 kts | 35° |
| 2026-05-04 13:24 | -11.40202 | -77.22838 | 20887 ft | 435 kts | 35° |
| 2026-05-04 13:24 | -11.37691 | -77.21075 | 21347 ft | 437 kts | 35° |
| 2026-05-04 13:24 | -11.35187 | -77.19310 | 21704 ft | 441 kts | 35° |
| 2026-05-04 13:25 | -11.30122 | -77.15730 | 22583 ft | 444 kts | 35° |
| 2026-05-04 13:25 | -11.27440 | -77.14116 | 22934 ft | 447 kts | 24° |
| 2026-05-04 13:25 | -11.24501 | -77.13157 | 23323 ft | 450 kts | 11° |
| 2026-05-04 13:25 | -11.21334 | -77.12879 | 23756 ft | 452 kts | 360° |
| 2026-05-04 13:26 | -11.18214 | -77.13120 | 24133 ft | 455 kts | 353° |
| 2026-05-04 13:26 | -11.15074 | -77.13653 | 24571 ft | 456 kts | 350° |
| 2026-05-04 13:26 | -11.11968 | -77.14329 | 24961 ft | 458 kts | 348° |
| 2026-05-04 13:26 | -11.08853 | -77.15083 | 25325 ft | 460 kts | 347° |
| 2026-05-04 13:27 | -11.05729 | -77.15871 | 25715 ft | 461 kts | 347° |
| 2026-05-04 13:27 | -11.02583 | -77.16675 | 26057 ft | 463 kts | 347° |
| 2026-05-04 13:27 | -10.99468 | -77.17474 | 26410 ft | 465 kts | 347° |
| 2026-05-04 13:27 | -10.96295 | -77.18286 | 26785 ft | 467 kts | 347° |
| 2026-05-04 13:28 | -10.93129 | -77.19096 | 27222 ft | 467 kts | 347° |
| 2026-05-04 13:28 | -10.89943 | -77.19910 | 27531 ft | 470 kts | 347° |
| 2026-05-04 13:28 | -10.86741 | -77.20726 | 27871 ft | 473 kts | 347° |
| 2026-05-04 13:28 | -10.83563 | -77.21536 | 28250 ft | 474 kts | 347° |
| 2026-05-04 13:29 | -10.80313 | -77.22362 | 28576 ft | 476 kts | 347° |
| 2026-05-04 13:29 | -10.77103 | -77.23180 | 28916 ft | 478 kts | 347° |
| 2026-05-04 13:29 | -10.73847 | -77.24009 | 29251 ft | 479 kts | 347° |
| 2026-05-04 13:29 | -10.70628 | -77.24828 | 29587 ft | 480 kts | 347° |
| 2026-05-04 13:30 | -10.67343 | -77.25665 | 29879 ft | 482 kts | 347° |
| 2026-05-04 13:30 | -10.64087 | -77.26493 | 30143 ft | 485 kts | 347° |
| 2026-05-04 13:30 | -10.60787 | -77.27332 | 30464 ft | 486 kts | 347° |
| 2026-05-04 13:30 | -10.57478 | -77.28174 | 30753 ft | 487 kts | 347° |
| 2026-05-04 13:31 | -10.54163 | -77.28958 | 30996 ft | 489 kts | 351° |
| 2026-05-04 13:31 | -10.50788 | -77.29500 | 31263 ft | 489 kts | 354° |
| 2026-05-04 13:31 | -10.44031 | -77.30066 | 31020 ft | 492 kts | 358° |
| 2026-05-04 13:32 | -10.40583 | -77.30224 | 30846 ft | 494 kts | 359° |
| 2026-05-04 13:32 | -10.37118 | -77.30355 | 30824 ft | 489 kts | 359° |
| 2026-05-04 13:32 | -10.30442 | -77.30608 | 30888 ft | 474 kts | 359° |
| 2026-05-04 13:33 | -10.27133 | -77.30750 | 31117 ft | 474 kts | 359° |
| 2026-05-04 13:33 | -10.23795 | -77.30901 | 31352 ft | 474 kts | 359° |
| 2026-05-04 13:33 | -10.20468 | -77.31058 | 31587 ft | 474 kts | 359° |
| 2026-05-04 13:33 | -10.17156 | -77.31216 | 31820 ft | 474 kts | 359° |
| 2026-05-04 13:34 | -10.13858 | -77.31376 | 32052 ft | 474 kts | 359° |
| 2026-05-04 13:34 | -10.10548 | -77.31537 | 32285 ft | 474 kts | 359° |
| 2026-05-04 13:34 | -10.07261 | -77.31696 | 32518 ft | 474 kts | 359° |
| 2026-05-04 13:34 | -10.03947 | -77.31858 | 32776 ft | 473 kts | 359° |
| 2026-05-04 13:35 | -10.00656 | -77.32018 | 33045 ft | 473 kts | 359° |
| 2026-05-04 13:35 | -9.94050 | -77.32342 | 33594 ft | 471 kts | 359° |
| 2026-05-04 13:35 | -9.90778 | -77.32501 | 33864 ft | 471 kts | 358° |
| 2026-05-04 13:36 | -9.87509 | -77.32659 | 34138 ft | 470 kts | 358° |
| 2026-05-04 13:36 | -9.84197 | -77.32819 | 34415 ft | 470 kts | 359° |
| 2026-05-04 13:36 | -9.80912 | -77.32979 | 34688 ft | 469 kts | 358° |
| 2026-05-04 13:36 | -9.77667 | -77.33136 | 34906 ft | 470 kts | 358° |
| 2026-05-04 13:37 | -9.74352 | -77.33297 | 34949 ft | 472 kts | 359° |
| 2026-05-04 13:37 | -9.67763 | -77.33617 | 34897 ft | 471 kts | 358° |
| 2026-05-04 13:38 | -9.61243 | -77.33934 | 34865 ft | 468 kts | 358° |
| 2026-05-04 13:38 | -9.54718 | -77.34252 | 34828 ft | 468 kts | 359° |
| 2026-05-04 13:39 | -9.48193 | -77.34568 | 34783 ft | 470 kts | 359° |
| 2026-05-04 13:39 | -9.41625 | -77.34886 | 34795 ft | 469 kts | 359° |
| 2026-05-04 13:40 | -9.35054 | -77.35205 | 34787 ft | 470 kts | 359° |
| 2026-05-04 13:40 | -9.28502 | -77.35523 | 34787 ft | 470 kts | 359° |
| 2026-05-04 13:41 | -9.21975 | -77.35838 | 34828 ft | 469 kts | 359° |
| 2026-05-04 13:41 | -9.15395 | -77.36156 | 34819 ft | 470 kts | 359° |
| 2026-05-04 13:42 | -9.05584 | -77.36633 | 34794 ft | 470 kts | 359° |
| 2026-05-04 13:42 | -8.99058 | -77.36949 | 34769 ft | 470 kts | 359° |
| 2026-05-04 13:43 | -8.92502 | -77.37266 | 34735 ft | 470 kts | 359° |
| 2026-05-04 13:43 | -8.85926 | -77.37583 | 34721 ft | 471 kts | 359° |
| 2026-05-04 13:44 | -8.79324 | -77.37901 | 34689 ft | 471 kts | 359° |
| 2026-05-04 13:44 | -8.72773 | -77.38211 | 34689 ft | 471 kts | 359° |
| 2026-05-04 13:45 | -8.66228 | -77.38512 | 34685 ft | 471 kts | 359° |
| 2026-05-04 13:45 | -8.59621 | -77.38821 | 34679 ft | 472 kts | 359° |
| 2026-05-04 13:46 | -8.53053 | -77.39129 | 34674 ft | 472 kts | 359° |
| 2026-05-04 13:46 | -8.46462 | -77.39439 | 34672 ft | 472 kts | 359° |
| 2026-05-04 13:47 | -8.39895 | -77.39748 | 34665 ft | 471 kts | 359° |